Time;durP1;ratioP1;P1;durP2;ratioP2;P2;SDS_P1;SDS_P2;PMS_P1;PMS_P2;Temp;Humidity;BMP_temperature;BMP_pressure;BME280_temperature;BME280_humidity;BME280_pressure;Samples;Min_cycle;Max_cycle;Signal;HPM_P1;HPM_P2
2022/04/12 00:00:55;;;;;;;8.97;7.03;;;9.20;97.90;;;;;;4990659;28;20031;-71
2022/04/12 00:03:21;;;;;;;9.63;7.17;;;9.10;97.90;;;;;;4990048;28;20388;-71
2022/04/12 00:05:47;;;;;;;13.00;8.00;;;9.10;98.10;;;;;;4989506;28;20053;-71
2022/04/12 00:08:12;;;;;;;10.40;7.40;;;9.20;97.20;;;;;;4989615;28;20502;-71
2022/04/12 00:10:38;;;;;;;10.57;6.67;;;9.10;98.10;;;;;;4988179;28;20034;-71
2022/04/12 00:13:04;;;;;;;7.83;6.60;;;9.40;98.20;;;;;;4989945;28;20022;-71
2022/04/12 00:15:30;;;;;;;9.70;7.60;;;;;;;;;;4989770;28;20205;-70
2022/04/12 00:20:40;;;;;;;10.33;6.90;;;8.90;98.20;;;;;;4989671;28;20061;-71
2022/04/12 00:23:06;;;;;;;9.53;7.43;;;9.10;98.40;;;;;;4989516;28;20089;-71
2022/04/12 00:25:31;;;;;;;10.10;7.83;;;8.90;98.30;;;;;;4971650;28;20066;-71
2022/04/12 00:27:58;;;;;;;9.17;6.37;;;9.00;91.70;;;;;;4989767;28;20080;-71
2022/04/12 00:30:25;;;;;;;11.10;8.50;;;8.90;98.50;;;;;;4988262;28;20124;-71
2022/04/12 00:32:52;;;;;;;9.10;7.27;;;9.00;98.50;;;;;;4989345;28;20045;-71
2022/04/12 00:35:20;;;;;;;10.03;6.63;;;8.90;98.50;;;;;;4989687;28;20073;-71
2022/04/12 00:37:46;;;;;;;8.87;7.27;;;8.90;98.60;;;;;;4987325;28;20026;-71
2022/04/12 00:40:13;;;;;;;10.27;7.37;;;9.00;98.60;;;;;;4988390;28;20081;-72
2022/04/12 00:42:39;;;;;;;8.80;6.80;;;8.70;95.10;;;;;;4976861;28;20114;-71
2022/04/12 00:45:05;;;;;;;12.10;6.90;;;8.90;98.60;;;;;;4970240;28;20106;-71
2022/04/12 00:47:31;;;;;;;8.60;6.27;;;;;;;;;;4969634;28;20030;-71
2022/04/12 00:49:57;;;;;;;7.77;6.17;;;8.90;91.80;;;;;;4970155;28;20034;-71
2022/04/12 00:52:25;;;;;;;8.67;6.10;;;8.90;96.60;;;;;;4969417;28;20046;-71
2022/04/12 00:54:53;;;;;;;10.03;7.20;;;9.00;98.60;;;;;;4969889;28;20079;-71
2022/04/12 00:57:18;;;;;;;8.63;6.50;;;8.80;98.60;;;;;;4978687;28;20029;-71
2022/04/12 00:59:45;;;;;;;8.90;7.97;;;9.30;98.80;;;;;;4989015;28;20030;-71
2022/04/12 01:02:10;;;;;;;9.77;6.60;;;8.80;98.60;;;;;;4989342;28;20030;-71
2022/04/12 01:04:36;;;;;;;7.73;6.37;;;8.80;94.30;;;;;;4988909;28;20396;-71
2022/04/12 01:07:03;;;;;;;9.20;6.47;;;8.90;98.70;;;;;;4989055;28;20130;-71
2022/04/12 01:09:29;;;;;;;6.43;5.80;;;8.70;98.70;;;;;;4988996;28;20062;-71
2022/04/12 01:11:56;;;;;;;7.90;6.77;;;8.80;98.70;;;;;;4981586;28;20522;-71
2022/04/12 01:14:23;;;;;;;8.63;6.17;;;8.70;98.70;;;;;;4971877;28;20077;-71
2022/04/12 01:16:49;;;;;;;8.00;5.20;;;;;;;;;;4973251;28;20818;-72
2022/04/12 01:19:15;;;;;;;11.13;6.70;;;8.80;98.60;;;;;;4973632;28;20364;-72
2022/04/12 01:21:56;;;;;;;8.20;6.07;;;8.90;98.80;;;;;;4972643;28;20051;-72
2022/04/12 01:24:22;;;;;;;10.27;6.10;;;8.60;98.70;;;;;;4973519;28;20519;-71
2022/04/12 01:26:48;;;;;;;6.73;5.03;;;8.70;98.80;;;;;;4973077;28;20046;-71
2022/04/12 01:29:13;;;;;;;13.90;7.40;;;8.60;98.80;;;;;;4983131;28;20042;-71
2022/04/12 01:31:39;;;;;;;8.43;6.43;;;8.70;98.90;;;;;;4992446;28;20121;-71
2022/04/12 01:34:05;;;;;;;8.93;6.93;;;;;;;;;;4992910;28;20037;-71
2022/04/12 01:36:30;;;;;;;9.53;6.90;;;8.70;99.00;;;;;;4992040;28;20476;-71
2022/04/12 01:38:56;;;;;;;8.53;6.23;;;8.60;99.00;;;;;;4992713;28;20057;-73
2022/04/12 01:41:22;;;;;;;9.83;7.07;;;;;;;;;;4989490;28;20100;-71
2022/04/12 01:43:48;;;;;;;9.67;7.03;;;;;;;;;;4972694;28;20102;-71
2022/04/12 01:46:14;;;;;;;10.10;6.40;;;8.60;99.10;;;;;;4973193;28;20169;-71
2022/04/12 01:48:39;;;;;;;10.13;7.40;;;8.70;99.20;;;;;;4972487;28;20027;-71
2022/04/12 01:51:05;;;;;;;11.00;7.20;;;8.50;99.10;;;;;;4972632;28;20093;-71
2022/04/12 01:53:31;;;;;;;8.50;7.00;;;;;;;;;;4972544;28;20023;-71
2022/04/12 01:55:56;;;;;;;10.93;8.27;;;8.50;97.80;;;;;;4973068;28;20110;-71
2022/04/12 01:58:22;;;;;;;9.63;6.57;;;8.50;99.30;;;;;;4987933;28;20105;-71
2022/04/12 02:00:47;;;;;;;11.50;7.90;;;8.40;99.40;;;;;;4991985;28;20037;-71
2022/04/12 02:03:13;;;;;;;12.93;8.03;;;8.00;99.40;;;;;;4992441;28;20109;-71
2022/04/12 02:05:39;;;;;;;9.73;7.23;;;8.50;99.60;;;;;;4987406;28;20362;-71
2022/04/12 02:08:05;;;;;;;9.50;6.63;;;8.50;99.70;;;;;;4972925;28;20083;-71
2022/04/12 02:10:31;;;;;;;8.80;6.73;;;;;;;;;;4972279;28;20022;-71
2022/04/12 02:12:57;;;;;;;11.37;8.23;;;8.40;99.80;;;;;;4972154;28;20031;-71
2022/04/12 02:15:23;;;;;;;8.43;7.07;;;;;;;;;;4972491;28;20070;-71
2022/04/12 02:17:49;;;;;;;11.53;7.67;;;8.30;99.90;;;;;;4986028;28;20027;-71
2022/04/12 02:20:14;;;;;;;10.13;7.80;;;8.30;99.90;;;;;;4991608;28;20023;-71
2022/04/12 02:22:40;;;;;;;10.60;6.80;;;8.30;99.70;;;;;;4991549;28;20141;-71
2022/04/12 02:25:06;;;;;;;10.97;8.93;;;8.30;99.50;;;;;;4991653;28;20046;-71
2022/04/12 02:27:31;;;;;;;10.07;7.47;;;8.20;99.40;;;;;;4991393;28;20030;-71
2022/04/12 02:29:57;;;;;;;11.23;7.40;;;8.10;99.90;;;;;;4991801;28;20379;-71
2022/04/12 02:32:23;;;;;;;9.60;8.57;;;;;;;;;;4991400;28;20070;-71
2022/04/12 02:34:49;;;;;;;8.60;7.33;;;8.40;99.90;;;;;;4990987;28;20110;-71
2022/04/12 02:37:15;;;;;;;13.83;7.60;;;;;;;;;;4975234;28;20114;-71
2022/04/12 02:39:40;;;;;;;11.30;7.23;;;8.20;99.90;;;;;;4971553;28;20429;-71
2022/04/12 02:42:06;;;;;;;8.30;6.57;;;8.20;99.90;;;;;;4972175;28;20384;-71
2022/04/12 02:44:31;;;;;;;11.13;7.67;;;8.20;99.90;;;;;;4971497;28;20027;-71
2022/04/12 02:46:57;;;;;;;9.23;6.60;;;8.30;99.90;;;;;;4971742;28;20148;-71
2022/04/12 02:49:23;;;;;;;9.50;8.03;;;;;;;;;;4983400;28;20034;-71
2022/04/12 02:51:50;;;;;;;7.27;6.37;;;8.10;99.90;;;;;;4973310;28;20438;-71
2022/04/12 02:54:16;;;;;;;6.63;5.87;;;7.70;99.90;;;;;;4991432;28;20114;-71
2022/04/12 02:56:41;;;;;;;9.13;5.80;;;8.00;99.90;;;;;;4990700;28;20062;-71
2022/04/12 02:59:07;;;;;;;7.13;5.40;;;8.10;99.90;;;;;;4989513;28;20429;-71
2022/04/12 03:01:34;;;;;;;9.10;6.47;;;8.50;99.90;;;;;;4990429;28;20038;-71
2022/04/12 03:04:00;;;;;;;7.23;5.37;;;8.10;99.90;;;;;;4990755;28;20060;-71
2022/04/12 03:06:26;;;;;;;8.30;6.27;;;;;;;;;;4989539;28;20045;-71
2022/04/12 03:08:51;;;;;;;7.23;6.30;;;8.00;99.90;;;;;;4989396;28;20791;-70
2022/04/12 03:11:17;;;;;;;6.97;5.43;;;8.10;99.90;;;;;;4991248;28;20088;-72
2022/04/12 03:13:42;;;;;;;8.80;6.20;;;8.00;99.90;;;;;;4990998;28;20038;-71
2022/04/12 03:16:08;;;;;;;11.03;6.27;;;8.00;99.90;;;;;;4988001;28;20038;-71
2022/04/12 03:18:34;;;;;;;11.87;6.37;;;;;;;;;;4970854;28;20027;-71
2022/04/12 03:20:59;;;;;;;7.90;5.73;;;8.00;98.50;;;;;;4971515;28;20472;-71
2022/04/12 03:23:25;;;;;;;8.50;6.50;;;;;;;;;;4971113;28;20031;-71
2022/04/12 03:25:51;;;;;;;8.23;6.40;;;8.10;97.50;;;;;;4986794;28;20107;-71
2022/04/12 03:28:17;;;;;;;7.07;5.50;;;;;;;;;;4972092;28;20102;-70
2022/04/12 03:30:43;;;;;;;11.10;7.40;;;8.00;99.90;;;;;;4971066;28;20043;-71
2022/04/12 03:33:09;;;;;;;7.57;6.33;;;;;;;;;;4966863;28;20050;-71
2022/04/12 03:35:35;;;;;;;9.07;5.97;;;7.90;99.90;;;;;;4990110;28;20033;-71
2022/04/12 03:38:01;;;;;;;9.97;6.90;;;;;;;;;;4990098;28;20030;-71
2022/04/12 03:40:32;;;;;;;7.43;6.33;;;7.90;95.00;;;;;;4978361;28;20031;-71
2022/04/12 03:43:02;;;;;;;11.33;6.37;;;8.10;99.90;;;;;;4971088;28;20035;-70
2022/04/12 03:45:28;;;;;;;11.03;6.30;;;8.00;99.90;;;;;;5005589;23;20057;-72
2022/04/12 03:47:54;;;;;;;7.37;6.67;;;8.00;99.90;;;;;;5010917;28;20092;-72
2022/04/12 03:50:20;;;;;;;11.40;7.13;;;;;;;;;;5010261;28;20072;-72
2022/04/12 03:52:46;;;;;;;8.20;6.37;;;7.90;99.90;;;;;;5010161;28;20450;-72
2022/04/12 03:55:12;;;;;;;9.10;7.07;;;7.80;99.90;;;;;;5011056;28;20029;-73
2022/04/12 03:57:38;;;;;;;7.87;6.73;;;;;;;;;;5010749;28;20061;-72
2022/04/12 04:00:08;;;;;;;8.80;7.00;;;7.80;99.90;;;;;;5010654;28;20030;-72
2022/04/12 04:02:34;;;;;;;7.43;6.10;;;;;;;;;;5002297;28;20045;-72
2022/04/12 04:04:59;;;;;;;7.97;7.03;;;7.90;99.90;;;;;;4991175;28;20057;-72
2022/04/12 04:07:27;;;;;;;9.20;6.63;;;7.90;99.90;;;;;;4989754;28;20065;-72
2022/04/12 04:09:53;;;;;;;10.50;6.53;;;7.80;99.90;;;;;;4989677;28;20030;-71
2022/04/12 04:12:18;;;;;;;7.57;6.30;;;7.60;99.90;;;;;;4991160;28;20053;-72
2022/04/12 04:14:44;;;;;;;8.93;7.40;;;7.70;99.90;;;;;;4990073;28;20022;-72
2022/04/12 04:17:10;;;;;;;7.80;6.23;;;;;;;;;;4994683;28;20036;-73
2022/04/12 04:19:36;;;;;;;10.57;8.00;;;;;;;;;;5009778;28;20061;-72
2022/04/12 04:22:02;;;;;;;10.97;8.00;;;7.70;99.50;;;;;;5010235;28;20014;-72
2022/04/12 04:24:27;;;;;;;8.50;6.23;;;7.70;99.90;;;;;;4993329;28;20402;-72
2022/04/12 04:26:55;;;;;;;7.50;6.67;;;;;;;;;;4990779;28;20074;-72
2022/04/12 04:29:22;;;;;;;7.43;6.37;;;;;;;;;;4990374;28;20033;-72
2022/04/12 04:31:48;;;;;;;9.53;6.70;;;7.50;99.90;;;;;;4991352;28;20089;-72
2022/04/12 04:34:13;;;;;;;8.17;6.53;;;7.60;99.90;;;;;;5010395;28;20468;-73
2022/04/12 04:36:39;;;;;;;11.13;7.90;;;7.70;99.90;;;;;;5003894;28;20104;-72
2022/04/12 04:39:04;;;;;;;11.33;7.33;;;7.80;98.10;;;;;;5008491;28;20018;-72
2022/04/12 04:41:30;;;;;;;11.67;7.83;;;7.20;99.90;;;;;;5010210;28;20092;-72
2022/04/12 04:43:55;;;;;;;10.10;7.53;;;7.80;99.90;;;;;;5009832;28;20061;-72
2022/04/12 04:46:21;;;;;;;11.43;7.37;;;7.80;99.90;;;;;;5009133;28;20093;-72
2022/04/12 04:48:47;;;;;;;10.80;7.67;;;;;;;;;;5009589;28;20030;-72
2022/04/12 04:51:12;;;;;;;8.93;7.30;;;;;;;;;;5011683;28;20506;-72
2022/04/12 04:53:38;;;;;;;9.53;7.30;;;;;;;;;;5012808;28;20273;-70
2022/04/12 04:56:05;;;;;;;8.73;6.87;;;7.70;99.70;;;;;;5013345;28;20073;-70
2022/04/12 04:58:31;;;;;;;13.00;7.67;;;;;;;;;;5012565;28;20022;-71
2022/04/12 05:00:56;;;;;;;9.97;7.53;;;7.50;99.90;;;;;;5011993;28;20091;-70
2022/04/12 05:03:22;;;;;;;8.27;6.30;;;7.80;99.90;;;;;;5011987;28;20037;-70
2022/04/12 05:05:48;;;;;;;11.80;8.47;;;7.90;99.90;;;;;;5012346;28;20037;-70
2022/04/12 05:08:13;;;;;;;8.27;6.03;;;7.70;99.90;;;;;;5012239;28;20029;-70
2022/04/12 05:10:39;;;;;;;10.87;6.60;;;;;;;;;;5005861;28;20030;-71
2022/04/12 05:13:05;;;;;;;9.43;7.03;;;;;;;;;;5011875;28;20497;-70
2022/04/12 05:15:31;;;;;;;9.90;7.27;;;;;;;;;;5012348;28;20030;-70
2022/04/12 05:17:57;;;;;;;10.73;8.53;;;;;;;;;;5011392;28;20029;-70
2022/04/12 05:20:25;;;;;;;12.57;7.30;;;7.80;97.70;;;;;;5010765;28;20026;-70
2022/04/12 05:22:51;;;;;;;12.57;8.07;;;8.00;99.90;;;;;;5012374;28;20034;-72
2022/04/12 05:25:17;;;;;;;10.87;6.90;;;7.90;99.90;;;;;;5012076;28;20394;-73
2022/04/12 05:27:43;;;;;;;14.17;7.27;;;7.70;95.80;;;;;;5011722;28;20069;-73
2022/04/12 05:30:10;;;;;;;14.30;8.27;;;8.00;99.90;;;;;;5010705;28;20098;-72
2022/04/12 05:32:36;;;;;;;16.43;9.80;;;8.00;99.90;;;;;;5003479;28;20166;-73
2022/04/12 05:35:08;;;;;;;9.60;6.50;;;8.00;99.90;;;;;;4992238;28;20034;-72
2022/04/12 05:37:46;;;;;;;12.70;7.20;;;7.50;99.90;;;;;;4992560;28;20117;-72
2022/04/12 05:40:13;;;;;;;10.27;6.50;;;8.10;99.90;;;;;;4992395;28;20083;-73
2022/04/12 05:42:39;;;;;;;13.90;7.57;;;7.80;99.90;;;;;;4992185;28;20048;-73
2022/04/12 05:45:06;;;;;;;11.50;7.47;;;8.20;99.90;;;;;;4957493;28;1013453;-73
2022/04/12 05:47:45;;;;;;;9.63;7.60;;;8.20;99.90;;;;;;4993382;28;20480;-73
2022/04/12 05:50:13;;;;;;;12.40;8.60;;;8.10;99.90;;;;;;5005319;28;20537;-74
2022/04/12 05:52:39;;;;;;;10.03;7.73;;;8.10;99.90;;;;;;5013059;28;20376;-73
2022/04/12 05:55:07;;;;;;;11.90;7.53;;;8.20;99.90;;;;;;5011631;28;20037;-73
2022/04/12 05:57:34;;;;;;;10.13;7.03;;;8.20;99.90;;;;;;5011178;28;20073;-73
2022/04/12 05:59:59;;;;;;;11.73;8.90;;;8.30;99.90;;;;;;5010899;28;20022;-73
2022/04/12 06:02:25;;;;;;;9.13;6.83;;;8.30;99.90;;;;;;5007023;28;20029;-73
2022/04/12 06:04:51;;;;;;;13.10;7.57;;;;;;;;;;4993508;28;20042;-73
2022/04/12 06:07:16;;;;;;;11.40;6.90;;;8.40;99.90;;;;;;4993108;28;20411;-73
2022/04/12 06:09:42;;;;;;;10.07;7.10;;;8.40;99.90;;;;;;4994148;28;20027;-73
2022/04/12 06:12:08;;;;;;;10.40;7.30;;;8.30;99.90;;;;;;4992550;28;20093;-73
2022/04/12 06:14:33;;;;;;;9.13;6.77;;;8.30;99.90;;;;;;4991675;28;20046;-73
2022/04/12 06:16:59;;;;;;;10.00;6.97;;;8.40;99.40;;;;;;4994034;28;20427;-73
2022/04/12 06:19:24;;;;;;;8.50;6.73;;;8.30;99.90;;;;;;5012464;28;20065;-73
2022/04/12 06:21:50;;;;;;;9.13;6.93;;;8.50;99.90;;;;;;5011310;28;20438;-73
2022/04/12 06:24:15;;;;;;;8.30;7.13;;;8.30;99.90;;;;;;5012608;28;20033;-73
2022/04/12 06:26:41;;;;;;;11.70;6.73;;;;;;;;;;5012129;28;20105;-73
2022/04/12 06:29:07;;;;;;;9.73;8.73;;;;;;;;;;5010841;28;20546;-73
2022/04/12 06:31:32;;;;;;;10.30;7.93;;;8.50;99.90;;;;;;5012235;28;20042;-73
2022/04/12 06:33:58;;;;;;;15.87;8.67;;;8.50;99.90;;;;;;5012244;28;20029;-73
2022/04/12 06:36:23;;;;;;;11.77;8.17;;;8.50;99.90;;;;;;5012204;28;20112;-73
2022/04/12 06:38:50;;;;;;;9.20;7.70;;;8.50;99.90;;;;;;4995676;28;20027;-73
2022/04/12 06:41:16;;;;;;;11.40;7.53;;;8.70;99.90;;;;;;4992272;28;20041;-73
2022/04/12 06:43:41;;;;;;;10.27;8.00;;;8.90;99.90;;;;;;4992373;28;20080;-73
2022/04/12 06:46:07;;;;;;;10.07;7.70;;;8.90;99.90;;;;;;4992224;28;20503;-73
2022/04/12 06:48:32;;;;;;;13.73;8.30;;;8.40;99.90;;;;;;4992400;28;20045;-73
2022/04/12 06:50:58;;;;;;;8.93;7.87;;;;;;;;;;4992197;28;20365;-73
2022/04/12 06:53:24;;;;;;;9.90;7.07;;;9.10;99.90;;;;;;4992185;28;20508;-73
2022/04/12 06:55:49;;;;;;;13.87;9.07;;;9.00;99.90;;;;;;4992081;28;20041;-73
2022/04/12 06:58:15;;;;;;;9.17;7.57;;;9.50;99.90;;;;;;4992058;28;20149;-73
2022/04/12 07:00:41;;;;;;;9.53;6.90;;;9.30;99.90;;;;;;4990955;28;20511;-73
2022/04/12 07:03:07;;;;;;;8.97;7.70;;;9.30;99.90;;;;;;4994431;28;20038;-73
2022/04/12 07:05:33;;;;;;;9.57;7.10;;;;;;;;;;5000529;28;20029;-73
2022/04/12 07:07:59;;;;;;;10.63;7.37;;;9.40;99.90;;;;;;5008894;28;20026;-73
2022/04/12 07:10:24;;;;;;;12.53;8.83;;;9.40;99.90;;;;;;5004979;28;20029;-72
2022/04/12 07:12:53;;;;;;;13.73;8.33;;;9.50;98.50;;;;;;5010154;28;20032;-73
2022/04/12 07:15:19;;;;;;;10.53;6.90;;;;;;;;;;5010522;28;20101;-73
2022/04/12 07:17:45;;;;;;;9.30;7.27;;;9.60;99.90;;;;;;5010736;28;20025;-71
2022/04/12 07:20:12;;;;;;;13.07;8.53;;;9.60;97.80;;;;;;5007464;28;20018;-71
2022/04/12 07:22:37;;;;;;;10.57;7.70;;;9.60;99.90;;;;;;5009986;28;20026;-70
2022/04/12 07:25:04;;;;;;;11.10;8.73;;;9.70;99.90;;;;;;5009443;28;20121;-70
2022/04/12 07:27:36;;;;;;;12.80;7.57;;;9.70;99.90;;;;;;5009852;28;20018;-70
2022/04/12 07:30:04;;;;;;;10.87;7.77;;;9.80;99.90;;;;;;5009792;28;20017;-70
2022/04/12 07:32:29;;;;;;;9.77;7.63;;;9.90;99.90;;;;;;5009866;28;20073;-70
2022/04/12 07:34:55;;;;;;;13.30;9.23;;;9.00;99.90;;;;;;5011241;28;20057;-71
2022/04/12 07:37:21;;;;;;;11.87;8.10;;;;;;;;;;5009255;28;20038;-70
2022/04/12 07:39:46;;;;;;;10.63;7.50;;;10.30;99.90;;;;;;5011180;28;20021;-70
2022/04/12 07:42:13;;;;;;;9.67;6.80;;;;;;;;;;5010395;28;20025;-70
2022/04/12 07:44:39;;;;;;;8.43;7.40;;;11.00;99.90;;;;;;5010896;28;20111;-70
2022/04/12 07:47:05;;;;;;;14.63;8.73;;;10.80;99.90;;;;;;5009161;28;20472;-70
2022/04/12 07:49:30;;;;;;;13.23;9.00;;;10.90;99.90;;;;;;4989623;28;20026;-70
2022/04/12 07:51:56;;;;;;;11.30;9.23;;;;;;;;;;4991671;28;20034;-70
2022/04/12 07:54:22;;;;;;;9.70;8.33;;;11.10;99.70;;;;;;5009592;28;20056;-71
2022/04/12 07:56:47;;;;;;;12.57;9.03;;;11.10;99.70;;;;;;5009662;28;20076;-71
2022/04/12 07:59:13;;;;;;;9.63;7.67;;;11.30;99.70;;;;;;5010152;28;20513;-70
2022/04/12 08:01:38;;;;;;;12.13;7.83;;;11.40;93.20;;;;;;5008911;28;20033;-70
2022/04/12 08:04:04;;;;;;;10.18;6.82;;;11.50;99.60;;;;;;5009374;28;20463;-70
2022/04/12 08:06:29;;;;;;;10.07;6.73;;;11.50;99.20;;;;;;5009452;28;20026;-70
2022/04/12 08:08:55;;;;;;;13.80;7.23;;;11.60;92.80;;;;;;5010207;28;20092;-71
2022/04/12 08:11:20;;;;;;;8.40;6.97;;;11.90;92.70;;;;;;5010103;28;20026;-70
2022/04/12 08:13:46;;;;;;;10.50;6.97;;;12.00;92.60;;;;;;5008970;28;20037;-70
2022/04/12 08:16:15;;;;;;;10.40;7.40;;;13.80;92.80;;;;;;5010141;28;20036;-70
2022/04/12 08:18:42;;;;;;;11.13;7.60;;;12.30;92.30;;;;;;5010028;28;20156;-70
2022/04/12 08:21:08;;;;;;;14.65;7.82;;;13.20;92.20;;;;;;5008857;28;20025;-71
2022/04/12 08:23:33;;;;;;;9.80;7.50;;;13.30;92.20;;;;;;5009550;28;20030;-71
2022/04/12 08:25:59;;;;;;;11.90;8.00;;;13.30;92.00;;;;;;5007854;28;20030;-71
2022/04/12 08:28:24;;;;;;;9.75;7.50;;;12.90;91.70;;;;;;5008734;28;20391;-71
2022/04/12 08:30:49;;;;;;;10.45;7.35;;;13.30;91.70;;;;;;5009056;28;20511;-71
2022/04/12 08:33:15;;;;;;;8.25;6.90;;;13.00;91.50;;;;;;5009404;28;20022;-71
2022/04/12 08:35:40;;;;;;;8.80;7.03;;;13.00;91.40;;;;;;5009665;28;20026;-71
2022/04/12 08:38:06;;;;;;;9.95;6.55;;;13.10;91.20;;;;;;5009981;28;20014;-71
2022/04/12 08:40:32;;;;;;;11.93;7.70;;;13.10;91.10;;;;;;5009185;28;20038;-71
2022/04/12 08:43:01;;;;;;;9.88;7.28;;;13.20;91.20;;;;;;5009081;28;20097;-71
2022/04/12 08:45:27;;;;;;;12.07;6.22;;;14.10;91.70;;;;;;5006052;28;20045;-71
2022/04/12 08:47:52;;;;;;;11.05;7.45;;;13.40;91.00;;;;;;5009935;28;20022;-71
2022/04/12 08:50:20;;;;;;;10.02;7.20;;;13.60;90.60;;;;;;5008015;28;20467;-71
2022/04/12 08:52:46;;;;;;;8.93;7.32;;;13.50;91.00;;;;;;4997949;28;20042;-71
2022/04/12 08:55:12;;;;;;;8.93;6.43;;;13.60;90.90;;;;;;5008826;28;20022;-70
2022/04/12 08:57:38;;;;;;;8.57;7.32;;;14.50;91.10;;;;;;5008619;28;20279;-71
2022/04/12 09:00:05;;;;;;;8.15;7.13;;;13.90;91.00;;;;;;5008521;28;20367;-71
2022/04/12 09:02:32;;;;;;;8.65;6.57;;;13.90;90.80;;;;;;5009529;28;20022;-70
2022/04/12 09:04:57;;;;;;;8.82;7.25;;;13.90;90.90;;;;;;5009140;28;20026;-71
2022/04/12 09:07:26;;;;;;;11.13;9.00;;;14.10;90.80;;;;;;5008363;28;20395;-71
2022/04/12 09:09:52;;;;;;;11.88;8.57;;;14.00;90.80;;;;;;5010183;28;20026;-71
2022/04/12 09:12:18;;;;;;;9.32;7.57;;;14.10;90.70;;;;;;5009774;28;20092;-71
2022/04/12 09:14:52;;;;;;;8.40;5.95;;;14.20;90.80;;;;;;5009420;28;20117;-72
2022/04/12 09:17:36;;;;;;;8.45;6.95;;;14.30;90.00;;;;;;5006258;28;20048;-72
2022/04/12 09:20:03;;;;;;;14.35;8.45;;;14.40;91.20;;;;;;5009049;28;20030;-71
2022/04/12 09:22:31;;;;;;;8.80;6.80;;;14.50;90.80;;;;;;5002096;28;20388;-71
2022/04/12 09:24:59;;;;;;;8.73;6.70;;;14.50;90.90;;;;;;5006518;28;20084;-70
2022/04/12 09:27:26;;;;;;;7.03;5.38;;;15.50;91.00;;;;;;5009527;28;20675;-70
2022/04/12 09:30:13;;;;;;;8.52;5.70;;;14.70;90.70;;;;;;5007700;28;20035;-71
2022/04/12 09:32:49;;;;;;;7.10;6.03;;;14.80;90.80;;;;;;5006977;28;20038;-71
2022/04/12 09:35:15;;;;;;;7.10;5.43;;;14.90;90.30;;;;;;5010581;28;20041;-71
2022/04/12 09:37:43;;;;;;;8.20;7.40;;;15.10;90.00;;;;;;5012822;28;20072;-71
2022/04/12 09:40:13;;;;;;;7.93;6.50;;;15.20;89.40;;;;;;5011479;28;20044;-72
2022/04/12 09:42:42;;;;;;;9.52;5.95;;;15.30;88.50;;;;;;5013152;28;20038;-72
2022/04/12 09:45:10;;;;;;;8.32;5.10;;;15.40;86.40;;;;;;5012850;28;20046;-71
2022/04/12 09:47:36;;;;;;;9.18;5.78;;;15.40;88.90;;;;;;5011620;28;20030;-71
2022/04/12 09:50:03;;;;;;;7.85;4.88;;;15.50;88.10;;;;;;5011622;28;20026;-71
2022/04/12 09:52:29;;;;;;;6.63;4.75;;;15.60;88.30;;;;;;5010419;28;20566;-72
2022/04/12 09:54:55;;;;;;;6.30;4.93;;;15.70;88.70;;;;;;5012968;28;20101;-71
2022/04/12 09:57:22;;;;;;;8.25;5.25;;;15.80;88.50;;;;;;5012678;28;20097;-71
2022/04/12 09:59:48;;;;;;;6.85;4.85;;;15.80;88.20;;;;;;5012593;28;20026;-71
2022/04/12 10:02:15;;;;;;;10.50;5.13;;;15.90;88.10;;;;;;5012054;28;20029;-71
2022/04/12 10:04:42;;;;;;;5.25;4.65;;;16.00;87.70;;;;;;5010098;28;20108;-71
2022/04/12 10:07:12;;;;;;;5.78;4.13;;;16.10;87.60;;;;;;5005663;28;20705;-72
2022/04/12 10:09:40;;;;;;;7.80;5.40;;;16.20;85.60;;;;;;5012800;28;20117;-71
2022/04/12 10:12:06;;;;;;;5.80;4.75;;;16.30;87.00;;;;;;5008559;28;20034;-71
2022/04/12 10:14:32;;;;;;;9.05;5.20;;;16.40;86.70;;;;;;5012674;28;20072;-71
2022/04/12 10:16:59;;;;;;;7.55;5.82;;;16.40;86.70;;;;;;5011757;28;20379;-71
2022/04/12 10:19:25;;;;;;;11.63;5.10;;;16.50;86.10;;;;;;5012265;28;20101;-70
2022/04/12 10:21:50;;;;;;;5.65;3.80;;;16.40;85.80;;;;;;5012218;28;20156;-72
2022/04/12 10:24:18;;;;;;;5.47;3.80;;;16.60;86.00;;;;;;5007151;28;20057;-70
2022/04/12 10:26:45;;;;;;;5.65;4.18;;;17.70;87.30;;;;;;4992943;28;20026;-72
2022/04/12 10:29:13;;;;;;;7.80;4.65;;;16.90;84.80;;;;;;4992765;28;20026;-73
2022/04/12 10:31:52;;;;;;;6.45;4.35;;;17.00;84.30;;;;;;4992385;28;20041;-73
2022/04/12 10:34:18;;;;;;;10.02;4.95;;;16.90;83.60;;;;;;4993647;28;20392;-73
2022/04/12 10:36:57;;;;;;;6.95;4.85;;;16.90;84.40;;;;;;4991557;28;20039;-72
2022/04/12 10:39:31;;;;;;;7.60;5.80;;;17.00;84.80;;;;;;4992783;28;20041;-73
2022/04/12 10:41:58;;;;;;;7.95;4.85;;;17.20;82.30;;;;;;4992602;28;20026;-73
2022/04/12 10:44:25;;;;;;;6.78;5.18;;;17.10;83.20;;;;;;4998089;28;20025;-73
2022/04/12 10:46:51;;;;;;;7.00;4.38;;;17.10;82.70;;;;;;5010853;28;20032;-73
2022/04/12 10:49:22;;;;;;;6.78;4.20;;;17.30;83.20;;;;;;5011262;28;20117;-73
2022/04/12 10:52:00;;;;;;;7.20;5.00;;;17.00;81.40;;;;;;5011452;28;20379;-73
2022/04/12 10:54:34;;;;;;;8.10;4.80;;;17.40;83.70;;;;;;5012000;28;20033;-72
2022/04/12 10:57:32;;;;;;;5.60;4.00;;;17.50;83.10;;;;;;5010648;28;20034;-71
2022/04/12 11:00:04;;;;;;;6.05;3.65;;;17.40;83.10;;;;;;4968532;28;20038;-72
2022/04/12 11:02:35;;;;;;;8.07;4.68;;;17.50;80.30;;;;;;5008883;28;20105;-72
2022/04/12 11:05:01;;;;;;;6.70;4.22;;;17.70;82.40;;;;;;5011168;28;20033;-72
2022/04/12 11:07:31;;;;;;;5.45;3.17;;;17.60;81.80;;;;;;5011483;28;20025;-71
2022/04/12 11:10:07;;;;;;;5.03;3.40;;;17.70;82.70;;;;;;5011485;28;20068;-71
2022/04/12 11:12:43;;;;;;;5.10;4.07;;;18.00;82.50;;;;;;5011336;28;20037;-72
2022/04/12 11:15:29;;;;;;;9.50;3.72;;;18.00;81.50;;;;;;5011021;28;20022;-71
2022/04/12 11:18:05;;;;;;;5.68;4.00;;;18.10;81.70;;;;;;5010808;28;20030;-72
2022/04/12 11:20:31;;;;;;;6.15;3.83;;;19.80;81.40;;;;;;5012097;28;20503;-72
2022/04/12 11:22:59;;;;;;;6.93;3.95;;;18.10;79.80;;;;;;5011110;28;20021;-72
2022/04/12 11:25:26;;;;;;;6.70;5.22;;;18.20;80.60;;;;;;5001345;28;20030;-72
2022/04/12 11:27:59;;;;;;;5.55;4.32;;;18.30;79.50;;;;;;5007394;28;20025;-72
2022/04/12 11:30:26;;;;;;;7.40;4.50;;;18.50;80.30;;;;;;5011132;28;20108;-72
2022/04/12 11:32:55;;;;;;;8.05;5.20;;;18.70;79.00;;;;;;5009837;28;20050;-71
2022/04/12 11:35:23;;;;;;;14.23;4.57;;;19.10;79.30;;;;;;5007176;28;20418;-71
2022/04/12 11:37:49;;;;;;;7.65;5.00;;;19.00;78.20;;;;;;5010785;28;20501;-71
2022/04/12 11:40:15;;;;;;;10.38;4.85;;;19.20;77.40;;;;;;5006770;28;20025;-71
2022/04/12 11:42:41;;;;;;;7.45;5.22;;;19.30;77.00;;;;;;5010310;28;20113;-71
2022/04/12 11:45:07;;;;;;;10.98;5.68;;;19.30;76.80;;;;;;5009867;28;20049;-71
2022/04/12 11:47:38;;;;;;;9.23;4.90;;;19.40;75.10;;;;;;4992973;28;20466;-72
2022/04/12 11:50:16;;;;;;;6.32;4.70;;;19.20;75.60;;;;;;5009754;28;20064;-71
2022/04/12 11:52:45;;;;;;;6.32;4.28;;;19.30;76.50;;;;;;5010801;28;20065;-71
2022/04/12 11:55:11;;;;;;;7.43;4.63;;;19.30;76.40;;;;;;5010806;28;20018;-72
2022/04/12 11:57:36;;;;;;;8.05;4.68;;;19.20;75.60;;;;;;5006745;28;20479;-71
2022/04/12 12:00:04;;;;;;;9.00;5.28;;;19.30;76.20;;;;;;5009622;28;20073;-72
2022/04/12 12:02:32;;;;;;;6.53;4.72;;;19.40;76.30;;;;;;5009213;28;20718;-72
2022/04/12 12:05:04;;;;;;;8.93;6.03;;;20.90;77.30;;;;;;5010140;28;20080;-71
2022/04/12 12:07:30;;;;;;;6.85;4.45;;;17.70;76.00;;;;;;5005689;28;20503;-71
2022/04/12 12:10:09;;;;;;;10.32;5.57;;;19.30;76.20;;;;;;5002711;28;20030;-72
2022/04/12 12:12:40;;;;;;;8.65;4.18;;;19.40;75.20;;;;;;5009689;28;20037;-71
2022/04/12 12:15:26;;;;;;;5.75;3.70;;;19.30;77.10;;;;;;4990638;28;20118;-71
2022/04/12 12:18:06;;;;;;;7.70;3.63;;;19.50;75.20;;;;;;4991036;28;20030;-71
2022/04/12 12:20:34;;;;;;;9.32;5.10;;;19.60;74.30;;;;;;5003636;28;20065;-71
2022/04/12 12:23:02;;;;;;;9.68;5.18;;;19.50;75.50;;;;;;5010240;28;20025;-72
2022/04/12 12:25:40;;;;;;;6.03;4.07;;;19.50;75.00;;;;;;5010081;28;20022;-72
2022/04/12 12:28:12;;;;;;;6.63;4.43;;;19.60;73.80;;;;;;5009959;28;20026;-71
2022/04/12 12:30:37;;;;;;;6.28;4.28;;;19.70;75.20;;;;;;5010158;28;20026;-75
2022/04/12 12:33:03;;;;;;;6.85;4.82;;;19.80;73.40;;;;;;5009570;28;20033;-72
2022/04/12 12:35:29;;;;;;;7.03;4.22;;;20.20;74.00;;;;;;5007135;28;20030;-72
2022/04/12 12:38:08;;;;;;;7.05;4.55;;;19.90;74.10;;;;;;5007542;28;20057;-72
2022/04/12 12:40:36;;;;;;;6.82;4.28;;;20.10;72.40;;;;;;5000207;28;20037;-71
2022/04/12 12:43:03;;;;;;;6.90;4.63;;;20.00;73.20;;;;;;5007530;28;20062;-72
2022/04/12 12:45:29;;;;;;;5.32;3.25;;;20.10;73.80;;;;;;4999725;28;20058;-73
2022/04/12 12:47:57;;;;;;;4.50;3.22;;;20.00;73.70;;;;;;5009275;28;20026;-73
2022/04/12 12:50:27;;;;;;;9.38;4.10;;;20.10;74.40;;;;;;5006517;28;20026;-73
2022/04/12 12:53:01;;;;;;;6.03;3.05;;;20.20;72.30;;;;;;5008584;28;20042;-71
2022/04/12 12:55:29;;;;;;;6.18;3.80;;;20.00;74.70;;;;;;5008510;28;20037;-70
2022/04/12 12:57:58;;;;;;;7.13;3.10;;;20.00;74.20;;;;;;5009253;28;20084;-73
2022/04/12 13:00:28;;;;;;;7.72;4.03;;;20.00;72.80;;;;;;5009198;28;20041;-73
2022/04/12 13:03:12;;;;;;;7.25;3.00;;;19.90;74.60;;;;;;5008391;28;20475;-71